sensor_id;sensor_type;location;lat;lon;timestamp;P1;durP1;ratioP1;P2;durP2;ratioP2
78116;SDS011;69042;59.120;37.904;2023-05-21T00:00:40;4.38;;;1.80;;
78116;SDS011;69042;59.120;37.904;2023-05-21T00:03:06;4.75;;;1.85;;
78116;SDS011;69042;59.120;37.904;2023-05-21T00:05:47;5.72;;;1.90;;
78116;SDS011;69042;59.120;37.904;2023-05-21T00:08:14;4.50;;;1.80;;
78116;SDS011;69042;59.120;37.904;2023-05-21T00:10:41;5.88;;;1.90;;
78116;SDS011;69042;59.120;37.904;2023-05-21T00:13:07;4.60;;;1.73;;
78116;SDS011;69042;59.120;37.904;2023-05-21T00:15:35;4.28;;;1.60;;
78116;SDS011;69042;59.120;37.904;2023-05-21T00:18:01;3.70;;;1.50;;
78116;SDS011;69042;59.120;37.904;2023-05-21T00:20:28;4.15;;;1.73;;
78116;SDS011;69042;59.120;37.904;2023-05-21T00:22:57;4.97;;;1.70;;
78116;SDS011;69042;59.120;37.904;2023-05-21T00:25:24;4.57;;;1.77;;
78116;SDS011;69042;59.120;37.904;2023-05-21T00:27:50;6.00;;;2.28;;
78116;SDS011;69042;59.120;37.904;2023-05-21T00:30:16;5.65;;;1.90;;
78116;SDS011;69042;59.120;37.904;2023-05-21T00:32:42;4.50;;;1.65;;
78116;SDS011;69042;59.120;37.904;2023-05-21T00:35:09;3.72;;;1.42;;
78116;SDS011;69042;59.120;37.904;2023-05-21T00:37:35;3.97;;;1.60;;
78116;SDS011;69042;59.120;37.904;2023-05-21T00:40:01;5.45;;;1.80;;
78116;SDS011;69042;59.120;37.904;2023-05-21T00:42:30;3.88;;;1.60;;
78116;SDS011;69042;59.120;37.904;2023-05-21T00:44:56;4.43;;;1.98;;
78116;SDS011;69042;59.120;37.904;2023-05-21T00:47:23;4.32;;;1.50;;
78116;SDS011;69042;59.120;37.904;2023-05-21T00:52:42;5.63;;;1.70;;
78116;SDS011;69042;59.120;37.904;2023-05-21T00:55:10;5.28;;;1.80;;
78116;SDS011;69042;59.120;37.904;2023-05-21T00:57:37;3.97;;;1.70;;
78116;SDS011;69042;59.120;37.904;2023-05-21T01:00:04;3.92;;;1.80;;
78116;SDS011;69042;59.120;37.904;2023-05-21T01:02:35;4.47;;;1.92;;
78116;SDS011;69042;59.120;37.904;2023-05-21T01:05:02;4.70;;;1.90;;
78116;SDS011;69042;59.120;37.904;2023-05-21T01:07:31;4.40;;;1.85;;
78116;SDS011;69042;59.120;37.904;2023-05-21T01:10:02;5.43;;;1.83;;
78116;SDS011;69042;59.120;37.904;2023-05-21T01:12:30;4.32;;;1.83;;
78116;SDS011;69042;59.120;37.904;2023-05-21T01:14:58;4.40;;;1.90;;
78116;SDS011;69042;59.120;37.904;2023-05-21T01:17:27;4.18;;;1.80;;
78116;SDS011;69042;59.120;37.904;2023-05-21T01:19:56;4.47;;;1.80;;
78116;SDS011;69042;59.120;37.904;2023-05-21T01:22:23;7.68;;;2.15;;
78116;SDS011;69042;59.120;37.904;2023-05-21T01:24:52;5.43;;;1.80;;
78116;SDS011;69042;59.120;37.904;2023-05-21T01:27:20;4.45;;;1.83;;
78116;SDS011;69042;59.120;37.904;2023-05-21T01:29:47;4.30;;;1.65;;
78116;SDS011;69042;59.120;37.904;2023-05-21T01:34:49;4.47;;;1.90;;
78116;SDS011;69042;59.120;37.904;2023-05-21T01:40:10;5.13;;;2.00;;
78116;SDS011;69042;59.120;37.904;2023-05-21T01:42:42;5.70;;;1.77;;
78116;SDS011;69042;59.120;37.904;2023-05-21T01:47:36;5.38;;;1.60;;
78116;SDS011;69042;59.120;37.904;2023-05-21T01:50:04;4.47;;;2.00;;
78116;SDS011;69042;59.120;37.904;2023-05-21T01:52:31;4.78;;;1.80;;
78116;SDS011;69042;59.120;37.904;2023-05-21T01:54:57;4.25;;;1.58;;
78116;SDS011;69042;59.120;37.904;2023-05-21T01:57:25;4.35;;;1.52;;
78116;SDS011;69042;59.120;37.904;2023-05-21T01:59:52;4.63;;;1.80;;
78116;SDS011;69042;59.120;37.904;2023-05-21T02:02:19;3.80;;;1.55;;
78116;SDS011;69042;59.120;37.904;2023-05-21T02:04:45;3.78;;;1.70;;
78116;SDS011;69042;59.120;37.904;2023-05-21T02:07:12;5.15;;;1.77;;
78116;SDS011;69042;59.120;37.904;2023-05-21T02:09:43;4.50;;;1.67;;
78116;SDS011;69042;59.120;37.904;2023-05-21T02:12:09;7.60;;;1.80;;
78116;SDS011;69042;59.120;37.904;2023-05-21T02:14:36;4.13;;;1.70;;
78116;SDS011;69042;59.120;37.904;2023-05-21T02:17:04;4.10;;;1.77;;
78116;SDS011;69042;59.120;37.904;2023-05-21T02:19:30;5.05;;;1.80;;
78116;SDS011;69042;59.120;37.904;2023-05-21T02:21:56;5.85;;;2.00;;
78116;SDS011;69042;59.120;37.904;2023-05-21T02:24:22;5.22;;;1.95;;
78116;SDS011;69042;59.120;37.904;2023-05-21T02:26:49;4.85;;;2.03;;
78116;SDS011;69042;59.120;37.904;2023-05-21T02:29:17;4.70;;;2.00;;
78116;SDS011;69042;59.120;37.904;2023-05-21T02:31:43;4.97;;;2.00;;
78116;SDS011;69042;59.120;37.904;2023-05-21T02:34:09;6.05;;;1.95;;
78116;SDS011;69042;59.120;37.904;2023-05-21T02:36:36;5.28;;;1.92;;
78116;SDS011;69042;59.120;37.904;2023-05-21T02:39:02;5.95;;;2.15;;
78116;SDS011;69042;59.120;37.904;2023-05-21T02:41:28;5.18;;;2.05;;
78116;SDS011;69042;59.120;37.904;2023-05-21T02:43:54;5.43;;;2.22;;
78116;SDS011;69042;59.120;37.904;2023-05-21T02:46:21;6.70;;;2.25;;
78116;SDS011;69042;59.120;37.904;2023-05-21T02:48:48;5.65;;;1.90;;
78116;SDS011;69042;59.120;37.904;2023-05-21T02:51:14;4.97;;;1.95;;
78116;SDS011;69042;59.120;37.904;2023-05-21T02:53:41;5.55;;;2.17;;
78116;SDS011;69042;59.120;37.904;2023-05-21T02:56:07;6.10;;;1.92;;
78116;SDS011;69042;59.120;37.904;2023-05-21T02:58:33;5.45;;;2.00;;
78116;SDS011;69042;59.120;37.904;2023-05-21T03:00:59;4.28;;;1.80;;
78116;SDS011;69042;59.120;37.904;2023-05-21T03:03:27;5.68;;;2.00;;
78116;SDS011;69042;59.120;37.904;2023-05-21T03:05:53;4.88;;;1.90;;
78116;SDS011;69042;59.120;37.904;2023-05-21T03:08:19;3.75;;;1.60;;
78116;SDS011;69042;59.120;37.904;2023-05-21T03:10:47;4.60;;;1.70;;
78116;SDS011;69042;59.120;37.904;2023-05-21T03:13:13;4.45;;;2.00;;
78116;SDS011;69042;59.120;37.904;2023-05-21T03:15:40;4.43;;;1.70;;
78116;SDS011;69042;59.120;37.904;2023-05-21T03:18:09;5.03;;;1.90;;
78116;SDS011;69042;59.120;37.904;2023-05-21T03:20:36;5.95;;;1.80;;
78116;SDS011;69042;59.120;37.904;2023-05-21T03:23:08;4.47;;;2.00;;
78116;SDS011;69042;59.120;37.904;2023-05-21T03:25:37;4.13;;;1.88;;
78116;SDS011;69042;59.120;37.904;2023-05-21T03:28:04;4.13;;;1.80;;
78116;SDS011;69042;59.120;37.904;2023-05-21T03:30:42;5.40;;;2.08;;
78116;SDS011;69042;59.120;37.904;2023-05-21T03:33:29;5.28;;;2.00;;
78116;SDS011;69042;59.120;37.904;2023-05-21T03:35:56;5.75;;;2.20;;
78116;SDS011;69042;59.120;37.904;2023-05-21T03:38:24;5.28;;;2.30;;
78116;SDS011;69042;59.120;37.904;2023-05-21T03:40:51;5.22;;;2.28;;
78116;SDS011;69042;59.120;37.904;2023-05-21T03:43:17;5.60;;;2.40;;
78116;SDS011;69042;59.120;37.904;2023-05-21T03:45:44;4.65;;;2.03;;
78116;SDS011;69042;59.120;37.904;2023-05-21T03:48:33;5.70;;;2.28;;
78116;SDS011;69042;59.120;37.904;2023-05-21T03:51:00;6.20;;;2.22;;
78116;SDS011;69042;59.120;37.904;2023-05-21T03:53:26;5.18;;;2.30;;
78116;SDS011;69042;59.120;37.904;2023-05-21T03:55:52;5.78;;;2.30;;
78116;SDS011;69042;59.120;37.904;2023-05-21T03:58:22;6.07;;;2.45;;
78116;SDS011;69042;59.120;37.904;2023-05-21T04:00:49;6.15;;;2.38;;
78116;SDS011;69042;59.120;37.904;2023-05-21T04:03:15;4.75;;;2.38;;
78116;SDS011;69042;59.120;37.904;2023-05-21T04:05:43;4.85;;;2.30;;
78116;SDS011;69042;59.120;37.904;2023-05-21T04:08:09;5.68;;;2.42;;
78116;SDS011;69042;59.120;37.904;2023-05-21T04:10:36;4.65;;;2.17;;
78116;SDS011;69042;59.120;37.904;2023-05-21T04:13:02;6.43;;;2.40;;
78116;SDS011;69042;59.120;37.904;2023-05-21T04:15:29;6.35;;;2.50;;
78116;SDS011;69042;59.120;37.904;2023-05-21T04:17:55;6.72;;;2.40;;
78116;SDS011;69042;59.120;37.904;2023-05-21T04:20:21;5.22;;;2.50;;
78116;SDS011;69042;59.120;37.904;2023-05-21T04:22:48;6.63;;;2.33;;
78116;SDS011;69042;59.120;37.904;2023-05-21T04:25:14;5.28;;;2.50;;
78116;SDS011;69042;59.120;37.904;2023-05-21T04:27:40;6.38;;;2.42;;
78116;SDS011;69042;59.120;37.904;2023-05-21T04:32:36;4.40;;;2.13;;
78116;SDS011;69042;59.120;37.904;2023-05-21T04:35:03;5.90;;;2.20;;
78116;SDS011;69042;59.120;37.904;2023-05-21T04:37:29;4.38;;;2.05;;
78116;SDS011;69042;59.120;37.904;2023-05-21T04:40:00;5.13;;;2.10;;
78116;SDS011;69042;59.120;37.904;2023-05-21T04:42:27;6.07;;;2.10;;
78116;SDS011;69042;59.120;37.904;2023-05-21T04:44:55;5.88;;;2.22;;
78116;SDS011;69042;59.120;37.904;2023-05-21T04:47:24;4.97;;;2.13;;
78116;SDS011;69042;59.120;37.904;2023-05-21T04:49:50;8.38;;;2.03;;
78116;SDS011;69042;59.120;37.904;2023-05-21T04:52:18;5.32;;;1.85;;
78116;SDS011;69042;59.120;37.904;2023-05-21T04:54:44;4.65;;;2.40;;
78116;SDS011;69042;59.120;37.904;2023-05-21T04:57:10;4.97;;;2.22;;
78116;SDS011;69042;59.120;37.904;2023-05-21T04:59:37;5.57;;;2.20;;
78116;SDS011;69042;59.120;37.904;2023-05-21T05:02:04;5.00;;;2.00;;
78116;SDS011;69042;59.120;37.904;2023-05-21T05:04:30;4.80;;;2.25;;
78116;SDS011;69042;59.120;37.904;2023-05-21T05:06:57;5.15;;;2.30;;
78116;SDS011;69042;59.120;37.904;2023-05-21T05:09:23;5.90;;;2.35;;
78116;SDS011;69042;59.120;37.904;2023-05-21T05:11:50;4.88;;;2.08;;
78116;SDS011;69042;59.120;37.904;2023-05-21T05:14:16;6.03;;;2.35;;
78116;SDS011;69042;59.120;37.904;2023-05-21T05:16:43;6.20;;;2.20;;
78116;SDS011;69042;59.120;37.904;2023-05-21T05:19:13;5.32;;;2.08;;
78116;SDS011;69042;59.120;37.904;2023-05-21T05:21:39;5.10;;;2.33;;
78116;SDS011;69042;59.120;37.904;2023-05-21T05:24:06;9.30;;;2.90;;
78116;SDS011;69042;59.120;37.904;2023-05-21T05:26:32;7.82;;;2.83;;
78116;SDS011;69042;59.120;37.904;2023-05-21T05:28:59;7.80;;;3.53;;
78116;SDS011;69042;59.120;37.904;2023-05-21T05:31:25;7.78;;;3.20;;
78116;SDS011;69042;59.120;37.904;2023-05-21T05:33:52;5.85;;;3.20;;
78116;SDS011;69042;59.120;37.904;2023-05-21T05:36:20;6.53;;;3.17;;
78116;SDS011;69042;59.120;37.904;2023-05-21T05:38:47;9.15;;;3.65;;
78116;SDS011;69042;59.120;37.904;2023-05-21T05:41:13;6.93;;;3.30;;
78116;SDS011;69042;59.120;37.904;2023-05-21T05:43:40;7.03;;;3.05;;
78116;SDS011;69042;59.120;37.904;2023-05-21T05:46:06;7.30;;;2.92;;
78116;SDS011;69042;59.120;37.904;2023-05-21T05:48:32;6.43;;;2.88;;
78116;SDS011;69042;59.120;37.904;2023-05-21T05:50:59;6.18;;;2.83;;
78116;SDS011;69042;59.120;37.904;2023-05-21T05:53:25;7.00;;;2.70;;
78116;SDS011;69042;59.120;37.904;2023-05-21T05:55:52;6.97;;;2.90;;
78116;SDS011;69042;59.120;37.904;2023-05-21T05:58:20;6.70;;;3.28;;
78116;SDS011;69042;59.120;37.904;2023-05-21T06:00:54;6.10;;;3.13;;
78116;SDS011;69042;59.120;37.904;2023-05-21T06:03:20;7.80;;;3.67;;
78116;SDS011;69042;59.120;37.904;2023-05-21T06:05:47;7.07;;;3.55;;
78116;SDS011;69042;59.120;37.904;2023-05-21T06:08:14;6.63;;;3.55;;
78116;SDS011;69042;59.120;37.904;2023-05-21T06:10:40;8.98;;;3.83;;
78116;SDS011;69042;59.120;37.904;2023-05-21T06:13:06;6.28;;;3.55;;
78116;SDS011;69042;59.120;37.904;2023-05-21T06:15:33;7.50;;;3.80;;
78116;SDS011;69042;59.120;37.904;2023-05-21T06:17:59;6.35;;;3.58;;
78116;SDS011;69042;59.120;37.904;2023-05-21T06:20:26;7.55;;;4.00;;
78116;SDS011;69042;59.120;37.904;2023-05-21T06:22:52;7.85;;;4.18;;
78116;SDS011;69042;59.120;37.904;2023-05-21T06:25:18;6.20;;;3.25;;
78116;SDS011;69042;59.120;37.904;2023-05-21T06:27:45;6.53;;;3.40;;
78116;SDS011;69042;59.120;37.904;2023-05-21T06:30:18;5.40;;;3.25;;
78116;SDS011;69042;59.120;37.904;2023-05-21T06:32:44;6.80;;;3.28;;
78116;SDS011;69042;59.120;37.904;2023-05-21T06:35:10;5.95;;;3.47;;
78116;SDS011;69042;59.120;37.904;2023-05-21T06:37:36;6.43;;;3.40;;
78116;SDS011;69042;59.120;37.904;2023-05-21T06:40:03;6.00;;;3.53;;
78116;SDS011;69042;59.120;37.904;2023-05-21T06:42:30;7.30;;;3.50;;
78116;SDS011;69042;59.120;37.904;2023-05-21T06:45:29;6.35;;;3.50;;
78116;SDS011;69042;59.120;37.904;2023-05-21T06:47:59;6.38;;;3.33;;
78116;SDS011;69042;59.120;37.904;2023-05-21T06:50:25;5.88;;;3.50;;
78116;SDS011;69042;59.120;37.904;2023-05-21T06:52:52;7.68;;;3.40;;
78116;SDS011;69042;59.120;37.904;2023-05-21T06:55:19;6.13;;;3.50;;
78116;SDS011;69042;59.120;37.904;2023-05-21T06:58:09;7.43;;;3.40;;
78116;SDS011;69042;59.120;37.904;2023-05-21T07:00:38;7.57;;;3.25;;
78116;SDS011;69042;59.120;37.904;2023-05-21T07:03:07;7.55;;;3.45;;
78116;SDS011;69042;59.120;37.904;2023-05-21T07:05:34;6.00;;;2.97;;
78116;SDS011;69042;59.120;37.904;2023-05-21T07:08:01;7.10;;;3.35;;
78116;SDS011;69042;59.120;37.904;2023-05-21T07:10:28;9.40;;;3.40;;
78116;SDS011;69042;59.120;37.904;2023-05-21T07:12:54;6.85;;;3.42;;
78116;SDS011;69042;59.120;37.904;2023-05-21T07:15:21;8.10;;;3.42;;
78116;SDS011;69042;59.120;37.904;2023-05-21T07:17:47;5.85;;;3.20;;
78116;SDS011;69042;59.120;37.904;2023-05-21T07:20:14;5.85;;;3.22;;
78116;SDS011;69042;59.120;37.904;2023-05-21T07:22:43;8.10;;;3.20;;
78116;SDS011;69042;59.120;37.904;2023-05-21T07:25:11;6.03;;;3.30;;
78116;SDS011;69042;59.120;37.904;2023-05-21T07:27:37;6.15;;;3.30;;
78116;SDS011;69042;59.120;37.904;2023-05-21T07:30:03;7.68;;;3.35;;
78116;SDS011;69042;59.120;37.904;2023-05-21T07:32:30;8.00;;;3.30;;
78116;SDS011;69042;59.120;37.904;2023-05-21T07:34:58;7.07;;;3.35;;
78116;SDS011;69042;59.120;37.904;2023-05-21T07:37:29;6.22;;;3.10;;
78116;SDS011;69042;59.120;37.904;2023-05-21T07:39:56;7.25;;;3.85;;
78116;SDS011;69042;59.120;37.904;2023-05-21T07:42:24;7.25;;;3.35;;
78116;SDS011;69042;59.120;37.904;2023-05-21T07:44:52;5.65;;;3.10;;
78116;SDS011;69042;59.120;37.904;2023-05-21T07:47:19;5.63;;;3.03;;
78116;SDS011;69042;59.120;37.904;2023-05-21T07:49:46;6.07;;;3.10;;
78116;SDS011;69042;59.120;37.904;2023-05-21T07:52:12;6.30;;;3.38;;
78116;SDS011;69042;59.120;37.904;2023-05-21T07:54:38;5.85;;;3.08;;
78116;SDS011;69042;59.120;37.904;2023-05-21T07:57:06;6.65;;;3.20;;
78116;SDS011;69042;59.120;37.904;2023-05-21T08:00:05;6.28;;;3.00;;
78116;SDS011;69042;59.120;37.904;2023-05-21T08:02:41;5.93;;;3.20;;
78116;SDS011;69042;59.120;37.904;2023-05-21T08:07:35;6.80;;;3.60;;
78116;SDS011;69042;59.120;37.904;2023-05-21T08:10:02;7.30;;;3.53;;
78116;SDS011;69042;59.120;37.904;2023-05-21T08:12:30;6.25;;;3.30;;
78116;SDS011;69042;59.120;37.904;2023-05-21T08:14:56;7.57;;;3.38;;
78116;SDS011;69042;59.120;37.904;2023-05-21T08:17:24;7.10;;;3.33;;
78116;SDS011;69042;59.120;37.904;2023-05-21T08:19:50;7.95;;;3.42;;
78116;SDS011;69042;59.120;37.904;2023-05-21T08:22:17;6.47;;;3.65;;
78116;SDS011;69042;59.120;37.904;2023-05-21T08:24:45;7.05;;;3.75;;
78116;SDS011;69042;59.120;37.904;2023-05-21T08:27:11;7.10;;;3.53;;
78116;SDS011;69042;59.120;37.904;2023-05-21T08:29:37;7.18;;;3.42;;
78116;SDS011;69042;59.120;37.904;2023-05-21T08:32:05;9.50;;;3.58;;
78116;SDS011;69042;59.120;37.904;2023-05-21T08:34:31;8.20;;;3.70;;
78116;SDS011;69042;59.120;37.904;2023-05-21T08:37:19;7.05;;;3.40;;
78116;SDS011;69042;59.120;37.904;2023-05-21T08:39:59;5.75;;;3.40;;
78116;SDS011;69042;59.120;37.904;2023-05-21T08:42:46;6.57;;;3.40;;
78116;SDS011;69042;59.120;37.904;2023-05-21T08:45:19;6.38;;;3.30;;
78116;SDS011;69042;59.120;37.904;2023-05-21T08:47:47;6.57;;;3.33;;
78116;SDS011;69042;59.120;37.904;2023-05-21T08:50:22;8.27;;;3.47;;
78116;SDS011;69042;59.120;37.904;2023-05-21T08:52:51;8.63;;;3.72;;
78116;SDS011;69042;59.120;37.904;2023-05-21T08:55:17;8.00;;;3.90;;
78116;SDS011;69042;59.120;37.904;2023-05-21T08:57:44;8.65;;;3.58;;
78116;SDS011;69042;59.120;37.904;2023-05-21T09:00:13;7.35;;;3.28;;
78116;SDS011;69042;59.120;37.904;2023-05-21T09:02:40;6.72;;;3.60;;
78116;SDS011;69042;59.120;37.904;2023-05-21T09:05:09;7.70;;;3.70;;
78116;SDS011;69042;59.120;37.904;2023-05-21T09:07:41;8.90;;;3.35;;
78116;SDS011;69042;59.120;37.904;2023-05-21T09:10:48;6.00;;;3.35;;
78116;SDS011;69042;59.120;37.904;2023-05-21T09:13:16;6.65;;;3.25;;
78116;SDS011;69042;59.120;37.904;2023-05-21T09:15:44;6.45;;;3.38;;
78116;SDS011;69042;59.120;37.904;2023-05-21T09:18:13;9.20;;;3.60;;
78116;SDS011;69042;59.120;37.904;2023-05-21T09:20:58;7.57;;;3.55;;
78116;SDS011;69042;59.120;37.904;2023-05-21T09:23:46;7.60;;;3.35;;
78116;SDS011;69042;59.120;37.904;2023-05-21T09:26:12;7.28;;;3.67;;
78116;SDS011;69042;59.120;37.904;2023-05-21T09:28:39;7.80;;;3.33;;
78116;SDS011;69042;59.120;37.904;2023-05-21T09:31:05;7.78;;;3.20;;
78116;SDS011;69042;59.120;37.904;2023-05-21T09:33:32;6.13;;;3.03;;
78116;SDS011;69042;59.120;37.904;2023-05-21T09:36:00;5.95;;;2.80;;
78116;SDS011;69042;59.120;37.904;2023-05-21T09:38:26;5.65;;;2.97;;
78116;SDS011;69042;59.120;37.904;2023-05-21T09:40:54;7.80;;;2.88;;
78116;SDS011;69042;59.120;37.904;2023-05-21T09:43:22;7.70;;;3.22;;
78116;SDS011;69042;59.120;37.904;2023-05-21T09:48:38;7.50;;;3.25;;
78116;SDS011;69042;59.120;37.904;2023-05-21T09:51:13;6.88;;;3.38;;
78116;SDS011;69042;59.120;37.904;2023-05-21T09:53:52;8.25;;;3.60;;
78116;SDS011;69042;59.120;37.904;2023-05-21T09:56:20;7.00;;;3.28;;
78116;SDS011;69042;59.120;37.904;2023-05-21T09:58:55;9.88;;;4.15;;
78116;SDS011;69042;59.120;37.904;2023-05-21T10:01:26;8.55;;;3.90;;
78116;SDS011;69042;59.120;37.904;2023-05-21T10:03:56;7.18;;;3.33;;
78116;SDS011;69042;59.120;37.904;2023-05-21T10:06:28;5.82;;;3.40;;
78116;SDS011;69042;59.120;37.904;2023-05-21T10:08:56;6.53;;;3.47;;
78116;SDS011;69042;59.120;37.904;2023-05-21T10:11:25;6.65;;;3.22;;
78116;SDS011;69042;59.120;37.904;2023-05-21T10:14:05;7.28;;;3.63;;
78116;SDS011;69042;59.120;37.904;2023-05-21T10:16:32;7.60;;;3.72;;
78116;SDS011;69042;59.120;37.904;2023-05-21T10:19:00;8.32;;;3.80;;
78116;SDS011;69042;59.120;37.904;2023-05-21T10:21:27;7.40;;;3.40;;
78116;SDS011;69042;59.120;37.904;2023-05-21T10:23:56;8.43;;;3.92;;
78116;SDS011;69042;59.120;37.904;2023-05-21T10:26:22;8.52;;;4.30;;
78116;SDS011;69042;59.120;37.904;2023-05-21T10:28:49;10.00;;;3.63;;
78116;SDS011;69042;59.120;37.904;2023-05-21T10:31:16;8.13;;;3.55;;
78116;SDS011;69042;59.120;37.904;2023-05-21T10:33:43;9.07;;;3.85;;
78116;SDS011;69042;59.120;37.904;2023-05-21T10:36:10;8.05;;;3.90;;
78116;SDS011;69042;59.120;37.904;2023-05-21T10:38:36;8.85;;;3.63;;
78116;SDS011;69042;59.120;37.904;2023-05-21T10:41:03;6.78;;;3.80;;
78116;SDS011;69042;59.120;37.904;2023-05-21T10:43:48;7.72;;;3.65;;
78116;SDS011;69042;59.120;37.904;2023-05-21T10:55:46;7.60;;;3.63;;
78116;SDS011;69042;59.120;37.904;2023-05-21T10:58:35;9.18;;;3.80;;
78116;SDS011;69042;59.120;37.904;2023-05-21T11:01:07;11.02;;;3.67;;
78116;SDS011;69042;59.120;37.904;2023-05-21T11:03:35;11.73;;;4.00;;
78116;SDS011;69042;59.120;37.904;2023-05-21T11:06:01;6.93;;;3.65;;
78116;SDS011;69042;59.120;37.904;2023-05-21T11:08:30;8.73;;;3.88;;
78116;SDS011;69042;59.120;37.904;2023-05-21T11:11:00;6.10;;;3.65;;
78116;SDS011;69042;59.120;37.904;2023-05-21T11:13:28;6.50;;;3.75;;
78116;SDS011;69042;59.120;37.904;2023-05-21T11:16:16;7.75;;;3.80;;
78116;SDS011;69042;59.120;37.904;2023-05-21T11:21:12;7.55;;;4.05;;
78116;SDS011;69042;59.120;37.904;2023-05-21T11:29:15;9.88;;;3.72;;
78116;SDS011;69042;59.120;37.904;2023-05-21T11:31:45;7.45;;;3.72;;
78116;SDS011;69042;59.120;37.904;2023-05-21T11:36:41;8.10;;;3.58;;
78116;SDS011;69042;59.120;37.904;2023-05-21T11:39:10;9.13;;;3.72;;
78116;SDS011;69042;59.120;37.904;2023-05-21T11:42:00;7.72;;;3.92;;
78116;SDS011;69042;59.120;37.904;2023-05-21T11:44:39;7.55;;;3.85;;
78116;SDS011;69042;59.120;37.904;2023-05-21T11:47:16;8.43;;;4.10;;
78116;SDS011;69042;59.120;37.904;2023-05-21T11:49:44;9.18;;;3.65;;
78116;SDS011;69042;59.120;37.904;2023-05-21T11:52:12;6.93;;;3.53;;
78116;SDS011;69042;59.120;37.904;2023-05-21T11:54:45;7.88;;;3.80;;
78116;SDS011;69042;59.120;37.904;2023-05-21T11:57:15;7.85;;;3.60;;
78116;SDS011;69042;59.120;37.904;2023-05-21T11:59:44;9.50;;;4.25;;
78116;SDS011;69042;59.120;37.904;2023-05-21T12:02:14;6.22;;;4.07;;
78116;SDS011;69042;59.120;37.904;2023-05-21T12:04:41;8.52;;;4.03;;
78116;SDS011;69042;59.120;37.904;2023-05-21T12:07:09;9.50;;;3.78;;
78116;SDS011;69042;59.120;37.904;2023-05-21T12:09:42;8.95;;;3.92;;
78116;SDS011;69042;59.120;37.904;2023-05-21T12:12:14;8.07;;;3.70;;
78116;SDS011;69042;59.120;37.904;2023-05-21T12:14:45;6.70;;;3.55;;
78116;SDS011;69042;59.120;37.904;2023-05-21T12:17:20;6.88;;;4.07;;
78116;SDS011;69042;59.120;37.904;2023-05-21T12:19:54;6.18;;;3.92;;
78116;SDS011;69042;59.120;37.904;2023-05-21T12:22:22;7.30;;;3.65;;
78116;SDS011;69042;59.120;37.904;2023-05-21T12:27:16;8.00;;;3.53;;
78116;SDS011;69042;59.120;37.904;2023-05-21T12:29:43;5.80;;;3.45;;
78116;SDS011;69042;59.120;37.904;2023-05-21T12:32:14;6.18;;;3.28;;
78116;SDS011;69042;59.120;37.904;2023-05-21T12:37:15;6.60;;;3.28;;
78116;SDS011;69042;59.120;37.904;2023-05-21T12:39:42;7.93;;;3.80;;
78116;SDS011;69042;59.120;37.904;2023-05-21T12:42:12;9.32;;;3.58;;
78116;SDS011;69042;59.120;37.904;2023-05-21T12:44:42;8.30;;;3.55;;
78116;SDS011;69042;59.120;37.904;2023-05-21T12:47:09;6.28;;;3.65;;
78116;SDS011;69042;59.120;37.904;2023-05-21T12:49:38;7.57;;;3.95;;
78116;SDS011;69042;59.120;37.904;2023-05-21T12:52:10;7.95;;;4.25;;
78116;SDS011;69042;59.120;37.904;2023-05-21T12:54:38;6.30;;;4.10;;
78116;SDS011;69042;59.120;37.904;2023-05-21T12:57:06;8.80;;;4.00;;
78116;SDS011;69042;59.120;37.904;2023-05-21T12:59:42;7.63;;;4.10;;
78116;SDS011;69042;59.120;37.904;2023-05-21T13:02:19;7.22;;;3.75;;
78116;SDS011;69042;59.120;37.904;2023-05-21T13:04:47;6.13;;;3.55;;
78116;SDS011;69042;59.120;37.904;2023-05-21T13:07:18;7.75;;;3.78;;
78116;SDS011;69042;59.120;37.904;2023-05-21T13:09:45;5.45;;;3.33;;
78116;SDS011;69042;59.120;37.904;2023-05-21T13:12:11;6.60;;;3.90;;
78116;SDS011;69042;59.120;37.904;2023-05-21T13:14:38;6.65;;;3.78;;
78116;SDS011;69042;59.120;37.904;2023-05-21T13:17:04;7.75;;;3.72;;
78116;SDS011;69042;59.120;37.904;2023-05-21T13:19:31;7.60;;;4.18;;
78116;SDS011;69042;59.120;37.904;2023-05-21T13:21:57;6.78;;;3.72;;
78116;SDS011;69042;59.120;37.904;2023-05-21T13:24:23;6.47;;;3.47;;
78116;SDS011;69042;59.120;37.904;2023-05-21T13:26:50;6.90;;;3.75;;
78116;SDS011;69042;59.120;37.904;2023-05-21T13:29:16;6.68;;;3.75;;
78116;SDS011;69042;59.120;37.904;2023-05-21T13:31:42;7.30;;;4.20;;
78116;SDS011;69042;59.120;37.904;2023-05-21T13:34:10;6.93;;;4.03;;
78116;SDS011;69042;59.120;37.904;2023-05-21T13:36:37;7.47;;;4.13;;
78116;SDS011;69042;59.120;37.904;2023-05-21T13:39:04;9.05;;;4.05;;
78116;SDS011;69042;59.120;37.904;2023-05-21T13:41:30;6.97;;;4.15;;
78116;SDS011;69042;59.120;37.904;2023-05-21T13:43:57;8.38;;;4.32;;
78116;SDS011;69042;59.120;37.904;2023-05-21T13:46:24;9.00;;;4.82;;
78116;SDS011;69042;59.120;37.904;2023-05-21T13:48:50;12.23;;;5.13;;
78116;SDS011;69042;59.120;37.904;2023-05-21T13:51:17;11.25;;;5.00;;
78116;SDS011;69042;59.120;37.904;2023-05-21T13:53:43;9.65;;;5.40;;
78116;SDS011;69042;59.120;37.904;2023-05-21T13:56:09;11.52;;;5.50;;
78116;SDS011;69042;59.120;37.904;2023-05-21T13:58:35;9.77;;;4.93;;
78116;SDS011;69042;59.120;37.904;2023-05-21T14:01:03;9.27;;;5.05;;
78116;SDS011;69042;59.120;37.904;2023-05-21T14:03:29;9.77;;;4.88;;
78116;SDS011;69042;59.120;37.904;2023-05-21T14:05:56;8.63;;;4.55;;
78116;SDS011;69042;59.120;37.904;2023-05-21T14:08:23;9.00;;;5.15;;
78116;SDS011;69042;59.120;37.904;2023-05-21T14:10:50;8.43;;;4.72;;
78116;SDS011;69042;59.120;37.904;2023-05-21T14:13:16;9.00;;;4.70;;
78116;SDS011;69042;59.120;37.904;2023-05-21T14:15:43;8.13;;;4.40;;
78116;SDS011;69042;59.120;37.904;2023-05-21T14:18:09;7.97;;;4.70;;
78116;SDS011;69042;59.120;37.904;2023-05-21T14:20:37;7.22;;;4.35;;
78116;SDS011;69042;59.120;37.904;2023-05-21T14:23:03;8.23;;;4.78;;
78116;SDS011;69042;59.120;37.904;2023-05-21T14:25:30;11.40;;;4.80;;
78116;SDS011;69042;59.120;37.904;2023-05-21T14:27:56;11.05;;;5.32;;
78116;SDS011;69042;59.120;37.904;2023-05-21T14:30:22;9.27;;;5.13;;
78116;SDS011;69042;59.120;37.904;2023-05-21T14:32:48;11.15;;;4.75;;
78116;SDS011;69042;59.120;37.904;2023-05-21T14:35:15;9.50;;;5.18;;
78116;SDS011;69042;59.120;37.904;2023-05-21T14:37:41;8.80;;;4.97;;
78116;SDS011;69042;59.120;37.904;2023-05-21T14:40:07;8.25;;;4.88;;
78116;SDS011;69042;59.120;37.904;2023-05-21T14:42:34;11.43;;;5.10;;
78116;SDS011;69042;59.120;37.904;2023-05-21T14:45:01;9.65;;;5.20;;
78116;SDS011;69042;59.120;37.904;2023-05-21T14:47:27;14.30;;;6.13;;
78116;SDS011;69042;59.120;37.904;2023-05-21T14:49:54;11.98;;;5.82;;
78116;SDS011;69042;59.120;37.904;2023-05-21T14:52:20;12.02;;;5.03;;
78116;SDS011;69042;59.120;37.904;2023-05-21T14:54:46;12.70;;;5.30;;
78116;SDS011;69042;59.120;37.904;2023-05-21T14:57:12;11.60;;;5.82;;
78116;SDS011;69042;59.120;37.904;2023-05-21T14:59:39;15.23;;;6.40;;
78116;SDS011;69042;59.120;37.904;2023-05-21T15:02:05;11.20;;;5.88;;
78116;SDS011;69042;59.120;37.904;2023-05-21T15:04:31;11.07;;;5.10;;
78116;SDS011;69042;59.120;37.904;2023-05-21T15:06:57;11.15;;;5.25;;
78116;SDS011;69042;59.120;37.904;2023-05-21T15:09:24;10.65;;;5.78;;
78116;SDS011;69042;59.120;37.904;2023-05-21T15:11:51;10.25;;;5.60;;
78116;SDS011;69042;59.120;37.904;2023-05-21T15:14:18;12.35;;;6.10;;
78116;SDS011;69042;59.120;37.904;2023-05-21T15:16:45;10.38;;;5.95;;
78116;SDS011;69042;59.120;37.904;2023-05-21T15:19:11;13.10;;;6.72;;
78116;SDS011;69042;59.120;37.904;2023-05-21T15:21:37;13.57;;;7.68;;
78116;SDS011;69042;59.120;37.904;2023-05-21T15:24:03;10.45;;;6.78;;